createdAt,value
2019-04-30T00:03:37.652Z,3.60
2019-04-30T00:08:39.220Z,3.87
2019-04-30T00:13:40.243Z,3.63
2019-04-30T00:18:55.428Z,3.70
2019-04-30T00:23:45.800Z,3.83
2019-04-30T00:28:47.836Z,3.40
2019-04-30T00:33:52.738Z,4.10
2019-04-30T00:38:51.752Z,3.13
2019-04-30T00:43:52.607Z,3.43
2019-04-30T00:48:55.544Z,3.67
2019-04-30T00:53:56.477Z,3.60
2019-04-30T00:58:57.972Z,3.57
2019-04-30T01:04:05.033Z,4.17
2019-04-30T01:09:08.707Z,3.70
2019-04-30T01:14:09.880Z,3.77
2019-04-30T01:19:26.597Z,3.73
2019-04-30T01:24:13.886Z,4.50
2019-04-30T01:29:15.265Z,4.20
2019-04-30T01:34:16.436Z,4.33
2019-04-30T01:39:19.401Z,4.13
2019-04-30T01:44:20.077Z,4.07
2019-04-30T01:49:25.706Z,3.80
2019-04-30T01:54:24.411Z,3.73
2019-04-30T01:59:29.099Z,3.53
2019-04-30T02:04:31.466Z,3.27
2019-04-30T02:09:32.574Z,3.10
2019-04-30T02:14:33.563Z,2.80
2019-04-30T02:19:34.459Z,2.97
2019-04-30T02:24:35.333Z,2.30
2019-04-30T02:29:36.219Z,2.43
2019-04-30T02:34:44.827Z,2.60
2019-04-30T02:39:46.184Z,2.67
2019-04-30T02:44:50.196Z,2.50
2019-04-30T02:49:53.355Z,2.70
2019-04-30T02:54:55.227Z,2.77
2019-04-30T03:00:16.104Z,2.43
2019-04-30T03:05:19.551Z,2.47
2019-04-30T03:10:20.113Z,2.33
2019-04-30T03:15:22.885Z,2.77
2019-04-30T03:20:36.414Z,2.63
2019-04-30T03:25:40.349Z,2.63
2019-04-30T03:30:42.058Z,2.70
2019-04-30T03:35:47.865Z,2.77
2019-04-30T03:40:46.097Z,2.63
2019-04-30T03:45:49.733Z,2.57
2019-04-30T03:50:56.288Z,2.90
2019-04-30T03:55:52.616Z,2.57
2019-04-30T04:01:00.346Z,2.10
2019-04-30T04:06:21.428Z,2.60
2019-04-30T04:11:24.111Z,2.50
2019-04-30T04:16:24.994Z,2.40
2019-04-30T04:21:25.954Z,2.90
2019-04-30T04:26:26.835Z,2.57
2019-04-30T04:31:29.825Z,2.33
2019-04-30T04:36:30.573Z,2.00
2019-04-30T04:41:31.593Z,2.17
2019-04-30T04:46:32.489Z,2.10
2019-04-30T04:51:38.501Z,1.60
2019-04-30T04:56:36.138Z,1.80
2019-04-30T05:01:38.790Z,1.70
2019-04-30T05:06:39.885Z,2.27
2019-04-30T05:11:40.761Z,1.80
2019-04-30T05:16:41.645Z,1.67
2019-04-30T05:21:44.745Z,1.60
2019-04-30T05:26:45.304Z,2.10
2019-04-30T05:31:46.181Z,2.07
2019-04-30T05:36:48.847Z,1.60
2019-04-30T05:41:49.847Z,2.10
2019-04-30T05:46:50.725Z,1.93
2019-04-30T05:51:55.540Z,2.07
2019-04-30T05:56:54.616Z,1.80
2019-04-30T06:01:55.496Z,1.57
2019-04-30T06:06:56.396Z,1.60
2019-04-30T06:11:59.303Z,1.60
2019-04-30T06:17:09.744Z,2.17
2019-04-30T06:22:11.204Z,1.97
2019-04-30T06:27:12.372Z,1.90
2019-04-30T06:32:13.415Z,2.00
2019-04-30T06:37:14.373Z,1.60
2019-04-30T06:42:15.283Z,2.13
2019-04-30T06:47:16.548Z,1.80
2019-04-30T06:52:21.358Z,1.93
2019-04-30T06:57:20.195Z,1.70
2019-04-30T07:02:21.184Z,2.10
2019-04-30T07:07:30.767Z,2.50
2019-04-30T07:12:30.544Z,2.17
2019-04-30T07:17:31.537Z,2.43
2019-04-30T07:22:40.178Z,2.47
2019-04-30T07:27:35.294Z,2.10
2019-04-30T07:32:36.160Z,2.33
2019-04-30T07:37:38.966Z,2.50
2019-04-30T07:42:44.602Z,2.50
2019-04-30T07:47:42.613Z,2.80
2019-04-30T07:52:58.895Z,2.67
2019-04-30T07:57:46.248Z,3.00
2019-04-30T08:02:51.815Z,3.30
2019-04-30T08:07:52.697Z,3.30
2019-04-30T08:12:54.093Z,3.13
2019-04-30T08:18:03.565Z,4.40
2019-04-30T08:23:03.094Z,4.40
2019-04-30T08:28:00.933Z,3.83
2019-04-30T08:33:01.996Z,4.13
2019-04-30T08:38:03.073Z,4.33
2019-04-30T08:43:04.059Z,5.17
2019-04-30T08:48:05.215Z,4.70
2019-04-30T08:53:06.163Z,5.27
2019-04-30T08:58:11.973Z,5.40
2019-04-30T09:03:09.925Z,5.40
2019-04-30T09:08:12.613Z,4.30
2019-04-30T09:13:13.480Z,2.90
2019-04-30T09:18:14.353Z,2.87
2019-04-30T09:23:15.235Z,2.90
2019-04-30T09:28:16.221Z,2.50
2019-04-30T09:33:17.072Z,2.73
2019-04-30T09:38:19.544Z,3.17
2019-04-30T09:43:20.922Z,2.97
2019-04-30T09:48:22.838Z,2.50
2019-04-30T09:53:24.729Z,3.07
2019-04-30T09:58:25.804Z,3.20
2019-04-30T10:03:27.269Z,3.87
2019-04-30T10:08:30.656Z,4.93
2019-04-30T10:13:32.388Z,8.80
2019-04-30T10:18:33.745Z,12.13
2019-04-30T10:23:34.623Z,12.57
2019-04-30T10:28:37.808Z,11.10
2019-04-30T10:33:38.720Z,11.67
2019-04-30T10:38:39.552Z,13.53
2019-04-30T10:43:40.650Z,12.53
2019-04-30T10:48:43.489Z,11.73
2019-04-30T10:53:44.375Z,11.60
2019-04-30T10:58:45.444Z,10.77
2019-04-30T11:03:46.423Z,10.37
2019-04-30T11:08:47.299Z,10.10
2019-04-30T11:13:48.183Z,11.23
2019-04-30T11:18:49.235Z,10.83
2019-04-30T11:23:50.883Z,11.30
2019-04-30T11:28:52.515Z,11.63
2019-04-30T11:33:55.623Z,11.60
2019-04-30T11:38:58.255Z,11.90
2019-04-30T11:43:59.572Z,12.50
2019-04-30T11:49:00.671Z,11.40
2019-04-30T11:54:01.547Z,11.23
2019-04-30T11:59:02.715Z,11.87
2019-04-30T12:04:03.888Z,11.13
2019-04-30T12:09:15.334Z,10.93
2019-04-30T12:14:16.316Z,12.10
2019-04-30T12:19:18.916Z,11.63
2019-04-30T12:24:20.112Z,10.33
2019-04-30T12:29:21.073Z,10.20
2019-04-30T12:34:24.707Z,10.43
2019-04-30T12:39:25.658Z,11.17
2019-04-30T12:44:26.631Z,10.97
2019-04-30T12:49:29.639Z,10.53
2019-04-30T12:54:41.760Z,9.67
2019-04-30T12:59:42.643Z,9.60
2019-04-30T13:04:43.503Z,7.40
2019-04-30T13:09:44.974Z,7.17
2019-04-30T13:14:52.497Z,7.93
2019-04-30T13:19:48.981Z,8.20
2019-04-30T13:24:49.990Z,8.57
2019-04-30T13:29:52.751Z,9.40
2019-04-30T13:35:00.680Z,8.40
2019-04-30T13:40:09.215Z,8.70
2019-04-30T13:45:10.540Z,8.83
2019-04-30T13:50:12.463Z,6.47
2019-04-30T13:55:13.423Z,6.13
2019-04-30T14:00:18.590Z,6.73
2019-04-30T14:05:19.976Z,7.17
2019-04-30T14:10:21.317Z,8.47
2019-04-30T14:15:22.309Z,7.30
2019-04-30T14:20:23.830Z,8.73
2019-04-30T14:25:24.701Z,8.30
2019-04-30T14:30:25.676Z,7.03
2019-04-30T14:35:28.681Z,7.40
2019-04-30T14:40:33.156Z,7.50
2019-04-30T14:45:40.698Z,7.93
2019-04-30T14:50:42.479Z,8.90
2019-04-30T14:55:54.270Z,8.33
2019-04-30T15:01:09.395Z,8.17
2019-04-30T15:06:10.681Z,10.40
2019-04-30T15:11:12.048Z,13.60
2019-04-30T15:16:13.077Z,13.70
2019-04-30T15:21:14.097Z,13.30
2019-04-30T15:26:22.083Z,13.10
2019-04-30T15:31:18.543Z,12.93
2019-04-30T15:36:19.755Z,11.67
2019-04-30T15:41:21.039Z,10.63
2019-04-30T15:46:22.720Z,11.33
2019-04-30T15:51:23.791Z,11.30
2019-04-30T15:56:34.405Z,10.20
2019-04-30T16:01:29.085Z,13.27
2019-04-30T16:06:30.292Z,11.70
2019-04-30T16:11:33.114Z,7.80
2019-04-30T16:16:36.494Z,6.47
2019-04-30T16:21:37.363Z,6.50
2019-04-30T16:26:49.038Z,6.37
2019-04-30T16:31:41.191Z,5.63
2019-04-30T16:36:42.081Z,5.60
2019-04-30T16:41:43.044Z,5.80
2019-04-30T16:46:43.928Z,6.07
2019-04-30T16:51:44.973Z,5.93
2019-04-30T16:56:46.138Z,7.63
2019-04-30T17:01:57.455Z,6.73
2019-04-30T17:07:12.109Z,7.37
2019-04-30T17:12:23.870Z,7.13
2019-04-30T17:17:24.875Z,9.13
2019-04-30T17:22:25.754Z,8.87
2019-04-30T17:27:26.629Z,9.20
2019-04-30T17:32:28.598Z,8.13
2019-04-30T17:37:31.484Z,7.97
2019-04-30T17:42:32.375Z,8.13
2019-04-30T17:47:33.256Z,8.93
2019-04-30T17:52:34.212Z,9.17
2019-04-30T17:57:35.191Z,8.40
2019-04-30T18:02:36.172Z,8.63
2019-04-30T18:07:37.150Z,9.10
2019-04-30T18:12:39.133Z,8.63
2019-04-30T18:17:41.415Z,8.60
2019-04-30T18:23:01.142Z,9.77
2019-04-30T18:28:04.372Z,8.43
2019-04-30T18:33:06.172Z,7.60
2019-04-30T18:38:07.152Z,6.80
2019-04-30T18:43:08.228Z,6.83
2019-04-30T18:48:09.698Z,7.40
2019-04-30T18:53:13.239Z,6.13
2019-04-30T18:58:14.106Z,5.10
2019-04-30T19:03:15.182Z,5.77
2019-04-30T19:08:19.486Z,5.60
2019-04-30T19:13:22.406Z,5.87
2019-04-30T19:18:25.193Z,5.67
2019-04-30T19:23:26.159Z,5.23
2019-04-30T19:28:28.692Z,5.50
2019-04-30T19:33:31.218Z,5.03
2019-04-30T19:38:32.390Z,6.00
2019-04-30T19:43:33.254Z,5.60
2019-04-30T19:48:35.814Z,6.13
2019-04-30T19:53:36.687Z,6.00
2019-04-30T19:58:52.340Z,6.80
2019-04-30T20:03:40.845Z,6.60
2019-04-30T20:08:42.428Z,6.50
2019-04-30T20:13:43.410Z,6.23
2019-04-30T20:18:44.283Z,6.00
2019-04-30T20:23:45.150Z,7.33
2019-04-30T20:28:46.134Z,6.43
2019-04-30T20:33:48.950Z,5.57
2019-04-30T20:39:01.279Z,6.60
2019-04-30T20:44:02.477Z,6.90
2019-04-30T20:49:05.345Z,6.83
2019-04-30T20:54:06.436Z,6.97
2019-04-30T20:59:10.459Z,6.57
2019-04-30T21:04:10.467Z,6.20
2019-04-30T21:09:11.373Z,5.33
2019-04-30T21:14:18.702Z,6.43
2019-04-30T21:19:19.980Z,6.93
2019-04-30T21:24:20.844Z,6.23
2019-04-30T21:29:21.715Z,7.00
2019-04-30T21:34:30.112Z,7.17
2019-04-30T21:39:30.968Z,9.70
2019-04-30T21:44:31.822Z,9.33
2019-04-30T21:49:32.884Z,8.07
2019-04-30T21:54:33.746Z,8.00
2019-04-30T21:59:34.602Z,7.53
2019-04-30T22:04:35.773Z,7.37
2019-04-30T22:09:37.491Z,6.60
2019-04-30T22:14:38.592Z,5.80
2019-04-30T22:19:39.579Z,6.30
2019-04-30T22:24:40.469Z,6.17
2019-04-30T22:29:42.271Z,6.37
2019-04-30T22:34:43.419Z,5.60
2019-04-30T22:39:46.198Z,5.50
